Impacts TAF Board
For situational awareness. Not to be used for flight planning purposes.
IDs:

KPIT - Pittsburgh Intl, PA, US

Issued at 0300 UTC 01 Feb 2023
Updated at 0329 UTC 01 Feb 2023
Potential Impact None Slight Moderate High
Time0251Z 01/04Z 01/05Z 01/06Z 01/07Z 01/08Z 01/09Z 01/10Z 01/11Z 01/12Z 01/13Z 01/14Z 01/15Z 01/16Z>>
Type OBS PRVL PRVL PRVL PRVL PRVL PRVL PRVL PRVL PRVL PRVL PRVL PRVL PRVL
VIS 10 >6 >6 >6 >6 >6 >6 >6 >6 >6 >6 >6 >6 >6
CIG 120 150 150 150 25 25 25 -- -- -- -- -- -- --
Cover OVC BKN BKN BKN OVC OVC OVC SCT SCT SCT SCT SCT SCT SKC
FltCat VFR VFR VFR VFR MVFR MVFR MVFR VFR VFR VFR VFR VFR VFR VFR
WX -- -- -- -- -- -- -- -- -- -- -- -- -- --
WDir 320 320 320 320 310 310 310 320 320 320 320 320 320 290
WSpd 4 4 4 4 4 4 4 5 5 5 5 5 5 4
WGst -- -- -- -- -- -- -- -- -- -- -- -- -- --
WSHgt -- -- -- -- -- -- -- -- -- -- -- -- -- --
WSDir -- -- -- -- -- -- -- -- -- -- -- -- -- --
WSSpd -- -- -- -- -- -- -- -- -- -- -- -- -- --

NOTE: LAMP data beyond the time of the TAF data is denoted as LAMP in Type and colored magenta.

Raw TAF
KPIT 010300Z 0103/0206 32004KT P6SM BKN150
  FM010700 31004KT P6SM OVC025
  FM011000 32005KT P6SM SCT025
  FM011600 29004KT P6SM SKC


Raw METAR
KPIT 010251Z 32004KT 10SM OVC120 M06/M11 A3022 RMK AO2 SLP260 T10561111 51007
KPIT 010151Z 27003KT 10SM OVC130 M06/M11 A3021 RMK AO2 SLP257 T10561106
KPIT 010051Z 23003KT 10SM OVC150 M06/M10 A3021 RMK AO2 SLP257 T10561100

METAR Board
Radar Display
Forecast Discussion

For situational awareness. Not to be used for flight planning purposes.